Time,TemperatureF,DewpointF,PressureIn,WindDirection,WindDirectionDegrees,WindSpeedMPH,WindSpeedGustMPH,Humidity,HourlyPrecipIn,Conditions,Clouds,dailyrainin,SoftwareType,DateUTC
2013-04-01 00:00:00,56.4,55.0,29.88,West,273,6.0,11.0,93,0.01,,,0.00,weatherlink.com 1.10,2013-04-01 04:00:00,
2013-04-01 00:15:00,56.6,55.0,29.88,West,260,9.0,11.0,94,0.00,,,0.00,weatherlink.com 1.10,2013-04-01 04:15:00,
2013-04-01 00:30:00,56.8,55.0,29.88,West,279,6.0,11.0,94,0.00,,,0.00,weatherlink.com 1.10,2013-04-01 04:30:00,
2013-04-01 00:45:00,56.6,55.0,29.88,West,263,6.0,11.0,94,0.00,,,0.00,weatherlink.com 1.10,2013-04-01 04:45:00,
2013-04-01 01:00:00,56.6,55.0,29.88,SW,227,9.0,15.0,94,0.00,,,0.00,weatherlink.com 1.10,2013-04-01 05:00:00,
2013-04-01 01:15:00,56.6,55.0,29.88,WSW,248,10.0,15.0,94,0.00,,,0.00,weatherlink.com 1.10,2013-04-01 05:15:00,
2013-04-01 01:30:00,56.5,55.0,29.88,West,259,4.0,15.0,94,0.00,,,0.00,weatherlink.com 1.10,2013-04-01 05:30:00,
2013-04-01 01:45:00,56.3,55.0,29.88,SW,236,9.0,13.0,94,0.00,,,0.00,weatherlink.com 1.10,2013-04-01 05:45:00,
2013-04-01 02:00:00,56.1,54.0,29.88,WNW,302,7.0,11.0,94,0.00,,,0.00,weatherlink.com 1.10,2013-04-01 06:00:00,
2013-04-01 02:15:00,56.5,55.0,29.88,WSW,252,9.0,18.0,94,0.00,,,0.00,weatherlink.com 1.10,2013-04-01 06:15:00,
2013-04-01 02:30:00,56.7,55.0,29.87,WSW,255,8.0,13.0,94,0.00,,,0.00,weatherlink.com 1.10,2013-04-01 06:30:00,
2013-04-01 02:45:00,56.8,55.0,29.86,West,261,8.0,11.0,94,0.00,,,0.00,weatherlink.com 1.10,2013-04-01 06:45:00,
2013-04-01 03:00:00,56.5,55.0,29.86,WSW,251,8.0,11.0,93,0.00,,,0.00,weatherlink.com 1.10,2013-04-01 07:00:00,
2013-04-01 03:15:00,57.1,55.0,29.85,WSW,256,6.0,9.0,94,0.00,,,0.00,weatherlink.com 1.10,2013-04-01 07:15:00,
2013-04-01 03:31:00,56.9,55.0,29.85,WSW,242,8.0,12.0,93,0.00,,,0.00,weatherlink.com 1.10,2013-04-01 07:31:00,
2013-04-01 03:46:00,56.9,55.0,29.84,WSW,250,9.0,11.0,94,0.00,,,0.00,weatherlink.com 1.10,2013-04-01 07:46:00,
2013-04-01 04:01:00,57.1,55.0,29.84,WNW,286,6.0,9.0,94,0.00,,,0.00,weatherlink.com 1.10,2013-04-01 08:01:00,
2013-04-01 04:16:00,56.9,55.0,29.84,West,259,4.0,7.0,94,0.00,,,0.00,weatherlink.com 1.10,2013-04-01 08:16:00,
2013-04-01 04:31:00,56.4,55.0,29.83,WSW,253,5.0,10.0,94,0.00,,,0.00,weatherlink.com 1.10,2013-04-01 08:31:00,
2013-04-01 04:46:00,56.2,55.0,29.83,West,277,3.0,11.0,94,0.00,,,0.00,weatherlink.com 1.10,2013-04-01 08:46:00,
2013-04-01 05:01:00,56.3,55.0,29.84,WNW,285,4.0,11.0,94,0.00,,,0.00,weatherlink.com 1.10,2013-04-01 09:01:00,
2013-04-01 05:16:00,56.6,55.0,29.84,WNW,285,3.0,7.0,94,0.00,,,0.00,weatherlink.com 1.10,2013-04-01 09:16:00,
2013-04-01 05:31:00,57.9,57.0,29.83,West,265,3.0,8.0,95,0.00,,,0.00,weatherlink.com 1.10,2013-04-01 09:31:00,
2013-04-01 05:46:00,59.8,58.0,29.82,West,263,5.0,10.0,94,0.00,,,0.00,weatherlink.com 1.10,2013-04-01 09:46:00,
2013-04-01 06:01:00,60.6,58.0,29.82,WNW,284,5.0,11.0,92,0.00,,,0.00,weatherlink.com 1.10,2013-04-01 10:01:00,
2013-04-01 06:31:00,61.0,58.0,29.83,WNW,298,7.0,13.0,91,0.00,,,0.00,weatherlink.com 1.10,2013-04-01 10:31:00,
2013-04-01 06:46:00,60.9,58.0,29.84,WNW,282,9.0,12.0,90,0.00,,,0.00,weatherlink.com 1.10,2013-04-01 10:46:00,
2013-04-01 07:16:00,60.8,58.0,29.85,WNW,290,11.0,12.0,90,0.00,,,0.00,weatherlink.com 1.10,2013-04-01 11:16:00,
2013-04-01 07:46:00,60.4,58.0,29.86,WNW,302,3.0,8.0,90,0.00,,,0.00,weatherlink.com 1.10,2013-04-01 11:46:00,
2013-04-01 08:01:00,60.4,58.0,29.86,West,278,2.0,8.0,91,0.00,,,0.00,weatherlink.com 1.10,2013-04-01 12:01:00,
2013-04-01 08:16:00,60.3,58.0,29.87,WNW,283,3.0,6.0,91,0.00,,,0.00,weatherlink.com 1.10,2013-04-01 12:16:00,
2013-04-01 08:31:00,60.7,58.0,29.88,West,279,7.0,8.0,91,0.00,,,0.00,weatherlink.com 1.10,2013-04-01 12:31:00,
2013-04-01 08:46:00,61.2,58.0,29.88,WSW,251,4.0,9.0,90,0.00,,,0.00,weatherlink.com 1.10,2013-04-01 12:46:00,
2013-04-01 09:16:00,56.9,55.0,29.89,WSW,240,11.0,12.0,92,0.00,,,0.00,weatherlink.com 1.10,2013-04-01 13:16:00,
2013-04-01 09:31:00,57.0,55.0,29.89,West,265,4.0,9.0,93,0.00,,,0.00,weatherlink.com 1.10,2013-04-01 13:31:00,
2013-04-01 10:01:00,57.1,55.0,29.88,WSW,244,3.0,9.0,94,0.00,,,0.00,weatherlink.com 1.10,2013-04-01 14:01:00,
2013-04-01 10:16:00,56.4,55.0,29.89,WSW,246,4.0,11.0,94,0.00,,,0.00,weatherlink.com 1.10,2013-04-01 14:16:00,
2013-04-01 10:31:00,57.0,56.0,29.87,West,261,5.0,8.0,95,0.01,,,0.01,weatherlink.com 1.10,2013-04-01 14:31:00,
2013-04-01 10:46:00,58.4,57.0,29.86,West,264,5.0,8.0,95,0.01,,,0.01,weatherlink.com 1.10,2013-04-01 14:46:00,
2013-04-01 11:05:00,57.7,56.0,29.87,WSW,244,6.0,7.0,95,0.01,,,0.01,weatherlink.com 1.10,2013-04-01 15:05:00,
2013-04-01 11:46:00,56.5,55.0,29.88,SW,225,7.0,13.0,95,0.00,,,0.01,weatherlink.com 1.10,2013-04-01 15:46:00,
2013-04-01 12:01:00,56.8,55.0,29.88,WSW,257,6.0,15.0,95,0.00,,,0.01,weatherlink.com 1.10,2013-04-01 16:01:00,
2013-04-01 12:16:00,57.3,56.0,29.87,West,277,6.0,9.0,95,0.00,,,0.01,weatherlink.com 1.10,2013-04-01 16:16:00,
2013-04-01 12:31:00,57.4,56.0,29.87,West,279,7.0,10.0,95,0.00,,,0.01,weatherlink.com 1.10,2013-04-01 16:31:00,
2013-04-01 12:46:00,58.4,57.0,29.86,WSW,238,11.0,11.0,95,0.00,,,0.01,weatherlink.com 1.10,2013-04-01 16:46:00,
2013-04-01 13:01:00,58.0,56.0,29.86,SW,229,9.0,15.0,94,0.00,,,0.01,weatherlink.com 1.10,2013-04-01 17:01:00,
2013-04-01 13:16:00,58.5,57.0,29.86,West,261,4.0,12.0,94,0.00,,,0.01,weatherlink.com 1.10,2013-04-01 17:16:00,
2013-04-01 13:31:00,59.6,58.0,29.86,NE,38,5.0,13.0,95,0.00,,,0.01,weatherlink.com 1.10,2013-04-01 17:31:00,
2013-04-01 13:46:00,60.0,58.0,29.86,NE,45,4.0,9.0,94,0.00,,,0.01,weatherlink.com 1.10,2013-04-01 17:46:00,
2013-04-01 14:01:00,60.1,58.0,29.85,NE,37,4.0,6.0,94,0.00,,,0.01,weatherlink.com 1.10,2013-04-01 18:01:00,
2013-04-01 14:16:00,60.0,58.0,29.85,NE,40,2.0,5.0,94,0.00,,,0.01,weatherlink.com 1.10,2013-04-01 18:16:00,
2013-04-01 14:31:00,60.6,59.0,29.84,NE,40,1.0,3.0,94,0.00,,,0.01,weatherlink.com 1.10,2013-04-01 18:31:00,
2013-04-01 15:01:00,60.7,58.0,29.83,South,185,2.0,4.0,92,0.00,,,0.01,weatherlink.com 1.10,2013-04-01 19:01:00,
2013-04-01 15:16:00,60.3,58.0,29.83,SSW,192,1.0,5.0,92,0.00,,,0.01,weatherlink.com 1.10,2013-04-01 19:16:00,
2013-04-01 15:31:00,61.4,59.0,29.82,South,171,2.0,4.0,93,0.00,,,0.01,weatherlink.com 1.10,2013-04-01 19:31:00,
2013-04-01 15:46:00,59.3,57.0,29.82,South,187,5.0,8.0,93,0.00,,,0.01,weatherlink.com 1.10,2013-04-01 19:46:00,
2013-04-01 16:01:00,58.5,57.0,29.82,SSW,207,2.0,7.0,93,0.00,,,0.01,weatherlink.com 1.10,2013-04-01 20:01:00,
2013-04-01 16:16:00,58.9,57.0,29.82,SW,228,0.0,9.0,93,0.00,,,0.01,weatherlink.com 1.10,2013-04-01 20:16:00,
2013-04-01 16:31:00,59.3,57.0,29.82,WSW,243,4.0,9.0,92,0.00,,,0.01,weatherlink.com 1.10,2013-04-01 20:31:00,
2013-04-01 16:46:00,59.7,57.0,29.82,SW,227,2.0,6.0,92,0.00,,,0.01,weatherlink.com 1.10,2013-04-01 20:46:00,
2013-04-01 17:01:00,60.0,57.0,29.82,WSW,249,2.0,7.0,90,0.00,,,0.01,weatherlink.com 1.10,2013-04-01 21:01:00,
2013-04-01 17:16:00,60.3,58.0,29.82,SW,217,4.0,6.0,91,0.00,,,0.01,weatherlink.com 1.10,2013-04-01 21:16:00,
2013-04-01 17:32:00,59.8,57.0,29.82,SW,234,2.0,6.0,90,0.00,,,0.01,weatherlink.com 1.10,2013-04-01 21:32:00,
2013-04-01 17:46:00,59.4,57.0,29.83,WSW,238,1.0,5.0,91,0.00,,,0.01,weatherlink.com 1.10,2013-04-01 21:46:00,
2013-04-01 18:16:00,59.9,57.0,29.83,SW,217,5.0,6.0,91,0.00,,,0.01,weatherlink.com 1.10,2013-04-01 22:16:00,
2013-04-01 18:31:00,59.3,57.0,29.83,SW,227,2.0,7.0,91,0.00,,,0.01,weatherlink.com 1.10,2013-04-01 22:31:00,
2013-04-01 18:46:00,59.0,56.0,29.83,SW,229,3.0,7.0,91,0.00,,,0.01,weatherlink.com 1.10,2013-04-01 22:46:00,
2013-04-01 19:02:00,58.5,56.0,29.83,WSW,241,3.0,7.0,91,0.00,,,0.01,weatherlink.com 1.10,2013-04-01 23:02:00,
2013-04-01 19:17:00,58.2,56.0,29.84,SW,225,3.0,7.0,92,0.00,,,0.01,weatherlink.com 1.10,2013-04-01 23:17:00,
2013-04-01 19:31:00,57.9,56.0,29.84,SW,231,6.0,7.0,93,0.00,,,0.01,weatherlink.com 1.10,2013-04-01 23:31:00,
2013-04-01 19:47:00,57.7,56.0,29.84,SW,218,5.0,8.0,93,0.00,,,0.01,weatherlink.com 1.10,2013-04-01 23:47:00,
2013-04-01 20:02:00,57.3,55.0,29.84,SW,215,2.0,6.0,93,0.00,,,0.01,weatherlink.com 1.10,2013-04-02 00:02:00,
2013-04-01 20:17:00,57.0,55.0,29.85,SW,232,2.0,6.0,93,0.00,,,0.01,weatherlink.com 1.10,2013-04-02 00:17:00,
2013-04-01 20:32:00,56.8,55.0,29.85,WSW,238,2.0,5.0,93,0.00,,,0.01,weatherlink.com 1.10,2013-04-02 00:32:00,
2013-04-01 20:47:00,56.6,55.0,29.85,SW,223,2.0,4.0,93,0.00,,,0.01,weatherlink.com 1.10,2013-04-02 00:47:00,
2013-04-01 21:02:00,56.4,55.0,29.86,WSW,243,3.0,5.0,93,0.00,,,0.01,weatherlink.com 1.10,2013-04-02 01:02:00,
2013-04-01 21:17:00,56.4,55.0,29.86,WSW,240,2.0,5.0,93,0.00,,,0.01,weatherlink.com 1.10,2013-04-02 01:17:00,
2013-04-01 21:32:00,56.2,54.0,29.87,WSW,254,2.0,5.0,93,0.00,,,0.01,weatherlink.com 1.10,2013-04-02 01:32:00,
2013-04-01 21:47:00,56.1,54.0,29.87,West,262,3.0,6.0,93,0.00,,,0.01,weatherlink.com 1.10,2013-04-02 01:47:00,
2013-04-01 22:02:00,56.1,54.0,29.88,West,265,5.0,7.0,93,0.00,,,0.01,weatherlink.com 1.10,2013-04-02 02:02:00,
2013-04-01 22:17:00,56.4,55.0,29.88,WSW,243,6.0,9.0,93,0.00,,,0.01,weatherlink.com 1.10,2013-04-02 02:17:00,
2013-04-01 22:32:00,56.5,55.0,29.89,West,265,2.0,7.0,94,0.00,,,0.01,weatherlink.com 1.10,2013-04-02 02:32:00,
2013-04-01 22:47:00,56.5,55.0,29.89,WSW,244,6.0,8.0,94,0.00,,,0.01,weatherlink.com 1.10,2013-04-02 02:47:00,
2013-04-01 23:02:00,56.6,55.0,29.89,West,277,5.0,8.0,94,0.00,,,0.01,weatherlink.com 1.10,2013-04-02 03:02:00,
2013-04-01 23:17:00,57.0,55.0,29.89,WSW,253,5.0,9.0,94,0.00,,,0.01,weatherlink.com 1.10,2013-04-02 03:17:00,
2013-04-01 23:32:00,57.1,55.0,29.89,West,269,5.0,8.0,94,0.00,,,0.01,weatherlink.com 1.10,2013-04-02 03:32:00,
2013-04-01 23:47:00,56.7,55.0,29.90,WNW,291,1.0,7.0,94,0.00,,,0.01,weatherlink.com 1.10,2013-04-02 03:47:00,